sensor_id;sensor_type;location;lat;lon;timestamp;temperature;humidity
65568;DHT22;52211;50.154;8.682;2022-12-07T00:01:54;7.20;70.00
65568;DHT22;52211;50.154;8.682;2022-12-07T00:04:23;7.20;70.00
65568;DHT22;52211;50.154;8.682;2022-12-07T00:06:52;7.20;70.70
65568;DHT22;52211;50.154;8.682;2022-12-07T00:09:22;7.20;70.10
65568;DHT22;52211;50.154;8.682;2022-12-07T00:11:51;7.20;70.00
65568;DHT22;52211;50.154;8.682;2022-12-07T00:14:21;7.20;70.00
65568;DHT22;52211;50.154;8.682;2022-12-07T00:16:50;7.20;70.00
65568;DHT22;52211;50.154;8.682;2022-12-07T00:19:22;7.20;70.00
65568;DHT22;52211;50.154;8.682;2022-12-07T00:21:49;7.20;70.00
65568;DHT22;52211;50.154;8.682;2022-12-07T00:24:18;7.20;70.00
65568;DHT22;52211;50.154;8.682;2022-12-07T00:26:45;7.20;70.00
65568;DHT22;52211;50.154;8.682;2022-12-07T00:29:18;7.20;70.00
65568;DHT22;52211;50.154;8.682;2022-12-07T00:31:46;7.20;69.80
65568;DHT22;52211;50.154;8.682;2022-12-07T00:34:20;7.20;69.90
65568;DHT22;52211;50.154;8.682;2022-12-07T00:36:53;7.20;69.80
65568;DHT22;52211;50.154;8.682;2022-12-07T00:39:21;7.20;69.80
65568;DHT22;52211;50.154;8.682;2022-12-07T00:41:48;7.20;69.80
65568;DHT22;52211;50.154;8.682;2022-12-07T00:44:17;7.20;69.80
65568;DHT22;52211;50.154;8.682;2022-12-07T00:46:48;7.20;69.80
65568;DHT22;52211;50.154;8.682;2022-12-07T00:49:22;7.20;69.90
65568;DHT22;52211;50.154;8.682;2022-12-07T00:51:51;7.20;69.90
65568;DHT22;52211;50.154;8.682;2022-12-07T00:54:23;7.20;69.90
65568;DHT22;52211;50.154;8.682;2022-12-07T00:56:59;7.20;70.40
65568;DHT22;52211;50.154;8.682;2022-12-07T00:59:26;7.20;69.80
65568;DHT22;52211;50.154;8.682;2022-12-07T01:01:53;7.20;69.80
65568;DHT22;52211;50.154;8.682;2022-12-07T01:04:22;7.20;69.80
65568;DHT22;52211;50.154;8.682;2022-12-07T01:06:51;7.20;69.80
65568;DHT22;52211;50.154;8.682;2022-12-07T01:09:18;7.10;69.80
65568;DHT22;52211;50.154;8.682;2022-12-07T01:11:48;7.10;69.70
65568;DHT22;52211;50.154;8.682;2022-12-07T01:14:17;7.10;69.70
65568;DHT22;52211;50.154;8.682;2022-12-07T01:16:44;7.10;69.70
65568;DHT22;52211;50.154;8.682;2022-12-07T01:19:11;7.10;69.70
65568;DHT22;52211;50.154;8.682;2022-12-07T01:21:40;7.10;69.70
65568;DHT22;52211;50.154;8.682;2022-12-07T01:24:11;7.00;69.70
65568;DHT22;52211;50.154;8.682;2022-12-07T01:26:38;7.00;69.70
65568;DHT22;52211;50.154;8.682;2022-12-07T01:29:07;7.00;69.70
65568;DHT22;52211;50.154;8.682;2022-12-07T01:31:34;7.00;69.70
65568;DHT22;52211;50.154;8.682;2022-12-07T01:34:04;7.00;69.80
65568;DHT22;52211;50.154;8.682;2022-12-07T01:36:38;7.00;69.80
65568;DHT22;52211;50.154;8.682;2022-12-07T01:39:06;6.90;69.80
65568;DHT22;52211;50.154;8.682;2022-12-07T01:41:40;6.90;69.80
65568;DHT22;52211;50.154;8.682;2022-12-07T01:44:26;6.90;69.80
65568;DHT22;52211;50.154;8.682;2022-12-07T01:47:03;6.90;69.90
65568;DHT22;52211;50.154;8.682;2022-12-07T01:52:27;6.90;70.00
65568;DHT22;52211;50.154;8.682;2022-12-07T01:55:04;6.80;70.00
65568;DHT22;52211;50.154;8.682;2022-12-07T01:57:40;6.80;70.00
65568;DHT22;52211;50.154;8.682;2022-12-07T02:00:13;6.80;70.00
65568;DHT22;52211;50.154;8.682;2022-12-07T02:05:50;6.80;70.00
65568;DHT22;52211;50.154;8.682;2022-12-07T02:08:18;6.80;70.00
65568;DHT22;52211;50.154;8.682;2022-12-07T02:10:46;6.70;70.00
65568;DHT22;52211;50.154;8.682;2022-12-07T02:13:24;6.70;70.10
65568;DHT22;52211;50.154;8.682;2022-12-07T02:25:22;6.60;70.20
65568;DHT22;52211;50.154;8.682;2022-12-07T02:28:09;6.60;70.20
65568;DHT22;52211;50.154;8.682;2022-12-07T02:30:48;6.60;70.40
65568;DHT22;52211;50.154;8.682;2022-12-07T02:33:35;6.60;70.40
65568;DHT22;52211;50.154;8.682;2022-12-07T02:36:30;6.60;70.40
65568;DHT22;52211;50.154;8.682;2022-12-07T02:39:09;6.60;70.40
65568;DHT22;52211;50.154;8.682;2022-12-07T02:41:51;6.60;70.40
65568;DHT22;52211;50.154;8.682;2022-12-07T02:44:25;6.60;70.40
65568;DHT22;52211;50.154;8.682;2022-12-07T02:47:06;6.60;70.40
65568;DHT22;52211;50.154;8.682;2022-12-07T02:49:39;6.60;70.50
65568;DHT22;52211;50.154;8.682;2022-12-07T02:52:09;6.50;70.40
65568;DHT22;52211;50.154;8.682;2022-12-07T02:54:37;6.50;70.50
65568;DHT22;52211;50.154;8.682;2022-12-07T03:00:19;6.50;70.60
65568;DHT22;52211;50.154;8.682;2022-12-07T03:08:55;6.50;70.50
65568;DHT22;52211;50.154;8.682;2022-12-07T03:11:50;6.50;70.50
65568;DHT22;52211;50.154;8.682;2022-12-07T03:14:31;6.50;70.50
65568;DHT22;52211;50.154;8.682;2022-12-07T03:17:14;6.50;70.50
65568;DHT22;52211;50.154;8.682;2022-12-07T03:19:50;6.50;70.60
65568;DHT22;52211;50.154;8.682;2022-12-07T03:22:22;6.50;70.50
65568;DHT22;52211;50.154;8.682;2022-12-07T03:24:55;6.50;70.60
65568;DHT22;52211;50.154;8.682;2022-12-07T03:27:42;6.50;70.60
65568;DHT22;52211;50.154;8.682;2022-12-07T03:30:19;6.50;70.70
65568;DHT22;52211;50.154;8.682;2022-12-07T03:33:02;6.50;70.60
65568;DHT22;52211;50.154;8.682;2022-12-07T03:35:46;6.50;70.60
65568;DHT22;52211;50.154;8.682;2022-12-07T03:38:30;6.50;70.60
65568;DHT22;52211;50.154;8.682;2022-12-07T03:41:12;6.50;70.60
65568;DHT22;52211;50.154;8.682;2022-12-07T03:43:45;6.50;70.60
65568;DHT22;52211;50.154;8.682;2022-12-07T03:46:56;6.50;70.60
65568;DHT22;52211;50.154;8.682;2022-12-07T03:49:44;6.50;70.70
65568;DHT22;52211;50.154;8.682;2022-12-07T03:52:25;6.50;70.60
65568;DHT22;52211;50.154;8.682;2022-12-07T03:54:58;6.50;70.70
65568;DHT22;52211;50.154;8.682;2022-12-07T03:57:34;6.50;70.70
65568;DHT22;52211;50.154;8.682;2022-12-07T04:00:07;6.50;70.70
65568;DHT22;52211;50.154;8.682;2022-12-07T04:02:44;6.50;70.70
65568;DHT22;52211;50.154;8.682;2022-12-07T04:05:15;6.50;70.70
65568;DHT22;52211;50.154;8.682;2022-12-07T04:07:45;6.50;70.70
65568;DHT22;52211;50.154;8.682;2022-12-07T04:10:12;6.50;70.70
65568;DHT22;52211;50.154;8.682;2022-12-07T04:12:41;6.50;70.70
65568;DHT22;52211;50.154;8.682;2022-12-07T04:15:08;6.50;70.70
65568;DHT22;52211;50.154;8.682;2022-12-07T04:17:40;6.60;70.80
65568;DHT22;52211;50.154;8.682;2022-12-07T04:20:08;6.60;70.80
65568;DHT22;52211;50.154;8.682;2022-12-07T04:22:38;6.60;70.90
65568;DHT22;52211;50.154;8.682;2022-12-07T04:25:05;6.60;70.90
65568;DHT22;52211;50.154;8.682;2022-12-07T04:27:35;6.60;70.80
65568;DHT22;52211;50.154;8.682;2022-12-07T04:30:07;6.60;70.80
65568;DHT22;52211;50.154;8.682;2022-12-07T04:32:35;6.60;70.90
65568;DHT22;52211;50.154;8.682;2022-12-07T04:35:02;6.60;70.90
65568;DHT22;52211;50.154;8.682;2022-12-07T04:37:29;6.70;71.00
65568;DHT22;52211;50.154;8.682;2022-12-07T04:39:59;6.70;70.90
65568;DHT22;52211;50.154;8.682;2022-12-07T04:42:31;6.70;70.90
65568;DHT22;52211;50.154;8.682;2022-12-07T04:45:03;6.70;70.90
65568;DHT22;52211;50.154;8.682;2022-12-07T04:47:30;6.80;70.90
65568;DHT22;52211;50.154;8.682;2022-12-07T04:49:59;6.80;70.80
65568;DHT22;52211;50.154;8.682;2022-12-07T04:52:29;6.80;70.80
65568;DHT22;52211;50.154;8.682;2022-12-07T04:54:56;6.80;70.80
65568;DHT22;52211;50.154;8.682;2022-12-07T04:57:23;6.80;70.70
65568;DHT22;52211;50.154;8.682;2022-12-07T04:59:49;6.80;70.70
65568;DHT22;52211;50.154;8.682;2022-12-07T05:02:16;6.90;70.70
65568;DHT22;52211;50.154;8.682;2022-12-07T05:04:48;6.80;70.60
65568;DHT22;52211;50.154;8.682;2022-12-07T05:07:17;6.80;70.60
65568;DHT22;52211;50.154;8.682;2022-12-07T05:09:44;6.80;70.60
65568;DHT22;52211;50.154;8.682;2022-12-07T05:12:13;6.80;70.60
65568;DHT22;52211;50.154;8.682;2022-12-07T05:14:40;6.80;70.60
65568;DHT22;52211;50.154;8.682;2022-12-07T05:17:09;6.80;70.60
65568;DHT22;52211;50.154;8.682;2022-12-07T05:19:39;6.80;70.60
65568;DHT22;52211;50.154;8.682;2022-12-07T05:22:10;6.70;70.60
65568;DHT22;52211;50.154;8.682;2022-12-07T05:24:39;6.70;70.70
65568;DHT22;52211;50.154;8.682;2022-12-07T05:27:08;6.80;70.80
65568;DHT22;52211;50.154;8.682;2022-12-07T05:29:35;6.80;70.80
65568;DHT22;52211;50.154;8.682;2022-12-07T05:32:05;6.80;70.90
65568;DHT22;52211;50.154;8.682;2022-12-07T05:34:35;6.80;70.90
65568;DHT22;52211;50.154;8.682;2022-12-07T05:37:05;6.80;70.80
65568;DHT22;52211;50.154;8.682;2022-12-07T05:39:32;6.80;70.80
65568;DHT22;52211;50.154;8.682;2022-12-07T05:41:59;6.90;70.80
65568;DHT22;52211;50.154;8.682;2022-12-07T05:44:39;6.90;70.80
65568;DHT22;52211;50.154;8.682;2022-12-07T05:47:11;6.90;70.80
65568;DHT22;52211;50.154;8.682;2022-12-07T05:49:42;6.90;70.80
65568;DHT22;52211;50.154;8.682;2022-12-07T05:52:09;6.90;70.80
65568;DHT22;52211;50.154;8.682;2022-12-07T05:54:38;6.90;70.80
65568;DHT22;52211;50.154;8.682;2022-12-07T05:57:07;6.90;70.80
65568;DHT22;52211;50.154;8.682;2022-12-07T05:59:34;6.90;70.80
65568;DHT22;52211;50.154;8.682;2022-12-07T06:02:06;6.90;70.70
65568;DHT22;52211;50.154;8.682;2022-12-07T06:04:39;6.90;70.80
65568;DHT22;52211;50.154;8.682;2022-12-07T06:07:09;6.90;70.70
65568;DHT22;52211;50.154;8.682;2022-12-07T06:09:43;7.00;70.80
65568;DHT22;52211;50.154;8.682;2022-12-07T06:12:12;7.00;70.80
65568;DHT22;52211;50.154;8.682;2022-12-07T06:15:03;7.00;70.80
65568;DHT22;52211;50.154;8.682;2022-12-07T06:17:36;7.00;70.80
65568;DHT22;52211;50.154;8.682;2022-12-07T06:20:07;7.00;70.80
65568;DHT22;52211;50.154;8.682;2022-12-07T06:22:34;7.00;70.80
65568;DHT22;52211;50.154;8.682;2022-12-07T06:25:01;7.00;70.80
65568;DHT22;52211;50.154;8.682;2022-12-07T06:27:34;7.00;70.80
65568;DHT22;52211;50.154;8.682;2022-12-07T06:30:04;7.00;70.80
65568;DHT22;52211;50.154;8.682;2022-12-07T06:32:33;7.10;70.90
65568;DHT22;52211;50.154;8.682;2022-12-07T06:35:05;7.10;70.90
65568;DHT22;52211;50.154;8.682;2022-12-07T06:37:37;7.10;70.90
65568;DHT22;52211;50.154;8.682;2022-12-07T06:40:05;7.10;70.90
65568;DHT22;52211;50.154;8.682;2022-12-07T06:42:32;7.10;70.90
65568;DHT22;52211;50.154;8.682;2022-12-07T06:44:59;7.10;70.90
65568;DHT22;52211;50.154;8.682;2022-12-07T06:47:28;7.10;70.90
65568;DHT22;52211;50.154;8.682;2022-12-07T06:50:11;7.20;70.90
65568;DHT22;52211;50.154;8.682;2022-12-07T06:52:43;7.20;70.90
65568;DHT22;52211;50.154;8.682;2022-12-07T06:55:10;7.20;70.90
65568;DHT22;52211;50.154;8.682;2022-12-07T06:57:42;7.20;70.90
65568;DHT22;52211;50.154;8.682;2022-12-07T07:00:12;7.20;70.90
65568;DHT22;52211;50.154;8.682;2022-12-07T07:02:47;7.30;71.00
65568;DHT22;52211;50.154;8.682;2022-12-07T07:05:17;7.20;70.90
65568;DHT22;52211;50.154;8.682;2022-12-07T07:07:49;7.30;70.90
65568;DHT22;52211;50.154;8.682;2022-12-07T07:10:37;7.30;70.90
65568;DHT22;52211;50.154;8.682;2022-12-07T07:13:08;7.30;70.90
65568;DHT22;52211;50.154;8.682;2022-12-07T07:15:37;7.30;70.90
65568;DHT22;52211;50.154;8.682;2022-12-07T07:18:07;7.30;70.90
65568;DHT22;52211;50.154;8.682;2022-12-07T07:20:37;7.30;70.90
65568;DHT22;52211;50.154;8.682;2022-12-07T07:23:06;7.30;70.90
65568;DHT22;52211;50.154;8.682;2022-12-07T07:25:34;7.30;70.90
65568;DHT22;52211;50.154;8.682;2022-12-07T07:28:06;7.30;70.80
65568;DHT22;52211;50.154;8.682;2022-12-07T07:30:33;7.30;70.80
65568;DHT22;52211;50.154;8.682;2022-12-07T07:33:01;7.30;70.80
65568;DHT22;52211;50.154;8.682;2022-12-07T07:35:34;7.30;70.70
65568;DHT22;52211;50.154;8.682;2022-12-07T07:38:06;7.30;70.70
65568;DHT22;52211;50.154;8.682;2022-12-07T07:40:34;7.30;70.70
65568;DHT22;52211;50.154;8.682;2022-12-07T07:43:04;7.30;70.80
65568;DHT22;52211;50.154;8.682;2022-12-07T07:45:31;7.30;70.80
65568;DHT22;52211;50.154;8.682;2022-12-07T07:47:58;7.30;70.80
65568;DHT22;52211;50.154;8.682;2022-12-07T07:50:27;7.30;70.80
65568;DHT22;52211;50.154;8.682;2022-12-07T07:53:01;7.40;70.90
65568;DHT22;52211;50.154;8.682;2022-12-07T07:55:32;7.40;70.90
65568;DHT22;52211;50.154;8.682;2022-12-07T07:57:59;7.40;70.90
65568;DHT22;52211;50.154;8.682;2022-12-07T08:00:27;7.40;70.90
65568;DHT22;52211;50.154;8.682;2022-12-07T08:02:58;7.40;70.90
65568;DHT22;52211;50.154;8.682;2022-12-07T08:05:28;7.50;70.90
65568;DHT22;52211;50.154;8.682;2022-12-07T08:07:57;7.50;70.90
65568;DHT22;52211;50.154;8.682;2022-12-07T08:10:24;7.50;70.80
65568;DHT22;52211;50.154;8.682;2022-12-07T08:12:54;7.50;70.80
65568;DHT22;52211;50.154;8.682;2022-12-07T08:15:46;7.50;70.70
65568;DHT22;52211;50.154;8.682;2022-12-07T08:18:17;7.50;70.70
65568;DHT22;52211;50.154;8.682;2022-12-07T08:20:44;7.50;70.60
65568;DHT22;52211;50.154;8.682;2022-12-07T08:23:13;7.50;70.60
65568;DHT22;52211;50.154;8.682;2022-12-07T08:25:42;7.50;70.60
65568;DHT22;52211;50.154;8.682;2022-12-07T08:28:16;7.50;70.60
65568;DHT22;52211;50.154;8.682;2022-12-07T08:30:45;7.50;70.60
65568;DHT22;52211;50.154;8.682;2022-12-07T08:33:14;7.50;70.50
65568;DHT22;52211;50.154;8.682;2022-12-07T08:35:41;7.50;70.50
65568;DHT22;52211;50.154;8.682;2022-12-07T08:38:08;7.50;70.60
65568;DHT22;52211;50.154;8.682;2022-12-07T08:40:35;7.60;70.70
65568;DHT22;52211;50.154;8.682;2022-12-07T08:43:04;7.60;70.80
65568;DHT22;52211;50.154;8.682;2022-12-07T08:45:36;7.60;70.70
65568;DHT22;52211;50.154;8.682;2022-12-07T08:48:11;7.60;70.70
65568;DHT22;52211;50.154;8.682;2022-12-07T08:50:42;7.60;70.60
65568;DHT22;52211;50.154;8.682;2022-12-07T08:53:15;7.60;70.60
65568;DHT22;52211;50.154;8.682;2022-12-07T08:55:46;7.70;70.60
65568;DHT22;52211;50.154;8.682;2022-12-07T08:58:16;7.70;70.60
65568;DHT22;52211;50.154;8.682;2022-12-07T09:00:45;7.70;70.50
65568;DHT22;52211;50.154;8.682;2022-12-07T09:03:14;7.70;70.50
65568;DHT22;52211;50.154;8.682;2022-12-07T09:05:46;7.70;70.40
65568;DHT22;52211;50.154;8.682;2022-12-07T09:08:17;7.70;70.40
65568;DHT22;52211;50.154;8.682;2022-12-07T09:10:48;7.70;70.40
65568;DHT22;52211;50.154;8.682;2022-12-07T09:13:18;7.70;70.40
65568;DHT22;52211;50.154;8.682;2022-12-07T09:15:47;7.70;70.40
65568;DHT22;52211;50.154;8.682;2022-12-07T09:18:20;7.70;70.90
65568;DHT22;52211;50.154;8.682;2022-12-07T09:20:49;7.70;70.30
65568;DHT22;52211;50.154;8.682;2022-12-07T09:23:21;7.70;70.30
65568;DHT22;52211;50.154;8.682;2022-12-07T09:25:50;7.80;70.30
65568;DHT22;52211;50.154;8.682;2022-12-07T09:28:19;7.80;70.40
65568;DHT22;52211;50.154;8.682;2022-12-07T09:30:49;7.80;70.40
65568;DHT22;52211;50.154;8.682;2022-12-07T09:33:36;7.90;70.50
65568;DHT22;52211;50.154;8.682;2022-12-07T09:36:03;7.90;70.40
65568;DHT22;52211;50.154;8.682;2022-12-07T09:38:33;7.90;70.40
65568;DHT22;52211;50.154;8.682;2022-12-07T09:41:06;7.90;70.40
65568;DHT22;52211;50.154;8.682;2022-12-07T09:43:39;8.10;70.50
65568;DHT22;52211;50.154;8.682;2022-12-07T09:46:14;8.10;70.60
65568;DHT22;52211;50.154;8.682;2022-12-07T09:48:50;8.20;70.50
65568;DHT22;52211;50.154;8.682;2022-12-07T09:51:24;8.20;70.40
65568;DHT22;52211;50.154;8.682;2022-12-07T09:53:57;8.30;70.10
65568;DHT22;52211;50.154;8.682;2022-12-07T09:56:31;8.40;70.00
65568;DHT22;52211;50.154;8.682;2022-12-07T09:59:01;8.40;69.90
65568;DHT22;52211;50.154;8.682;2022-12-07T10:01:34;8.40;69.80
65568;DHT22;52211;50.154;8.682;2022-12-07T10:04:16;8.40;69.80
65568;DHT22;52211;50.154;8.682;2022-12-07T10:06:48;8.50;70.00
65568;DHT22;52211;50.154;8.682;2022-12-07T10:09:23;8.50;70.10
65568;DHT22;52211;50.154;8.682;2022-12-07T10:12:07;8.50;70.10
65568;DHT22;52211;50.154;8.682;2022-12-07T10:14:39;8.70;70.90
65568;DHT22;52211;50.154;8.682;2022-12-07T10:17:47;8.80;70.30
65568;DHT22;52211;50.154;8.682;2022-12-07T10:20:24;8.90;70.00
65568;DHT22;52211;50.154;8.682;2022-12-07T10:25:36;9.10;69.80
65568;DHT22;52211;50.154;8.682;2022-12-07T10:39:03;9.30;69.00
65568;DHT22;52211;50.154;8.682;2022-12-07T10:41:31;9.30;68.90
65568;DHT22;52211;50.154;8.682;2022-12-07T10:43:58;9.30;68.90
65568;DHT22;52211;50.154;8.682;2022-12-07T10:46:36;9.40;68.90
65568;DHT22;52211;50.154;8.682;2022-12-07T10:52:24;9.40;68.40
65568;DHT22;52211;50.154;8.682;2022-12-07T10:55:11;9.40;68.50
65568;DHT22;52211;50.154;8.682;2022-12-07T11:01:25;9.40;68.00
65568;DHT22;52211;50.154;8.682;2022-12-07T11:04:07;9.50;67.90
65568;DHT22;52211;50.154;8.682;2022-12-07T11:07:36;9.50;69.20
65568;DHT22;52211;50.154;8.682;2022-12-07T11:13:32;9.60;68.10
65568;DHT22;52211;50.154;8.682;2022-12-07T11:19:40;9.70;67.40
65568;DHT22;52211;50.154;8.682;2022-12-07T11:25:28;9.70;68.00
65568;DHT22;52211;50.154;8.682;2022-12-07T11:31:22;9.70;67.20
65568;DHT22;52211;50.154;8.682;2022-12-07T11:34:03;9.70;67.80
65568;DHT22;52211;50.154;8.682;2022-12-07T11:36:37;9.70;68.00
65568;DHT22;52211;50.154;8.682;2022-12-07T11:39:30;9.70;67.70
65568;DHT22;52211;50.154;8.682;2022-12-07T11:42:09;9.80;67.40
65568;DHT22;52211;50.154;8.682;2022-12-07T11:44:52;9.80;67.80
65568;DHT22;52211;50.154;8.682;2022-12-07T11:47:34;9.90;67.70
65568;DHT22;52211;50.154;8.682;2022-12-07T11:52:57;9.90;66.50
65568;DHT22;52211;50.154;8.682;2022-12-07T11:55:49;9.90;67.10
65568;DHT22;52211;50.154;8.682;2022-12-07T12:01:44;9.80;66.50
65568;DHT22;52211;50.154;8.682;2022-12-07T12:07:43;10.00;67.60
65568;DHT22;52211;50.154;8.682;2022-12-07T12:13:54;10.60;67.60
65568;DHT22;52211;50.154;8.682;2022-12-07T12:17:13;10.70;65.90
65568;DHT22;52211;50.154;8.682;2022-12-07T12:22:33;10.70;65.70
65568;DHT22;52211;50.154;8.682;2022-12-07T12:25:22;10.70;65.60
65568;DHT22;52211;50.154;8.682;2022-12-07T12:27:55;10.70;66.20
65568;DHT22;52211;50.154;8.682;2022-12-07T12:30:37;10.90;66.80
65568;DHT22;52211;50.154;8.682;2022-12-07T12:33:28;11.00;65.80
65568;DHT22;52211;50.154;8.682;2022-12-07T12:39:09;11.20;64.70
65568;DHT22;52211;50.154;8.682;2022-12-07T12:52:58;11.00;65.00
65568;DHT22;52211;50.154;8.682;2022-12-07T13:00:47;10.70;64.90
65568;DHT22;52211;50.154;8.682;2022-12-07T13:03:37;10.70;65.40
65568;DHT22;52211;50.154;8.682;2022-12-07T13:09:01;10.70;65.10
65568;DHT22;52211;50.154;8.682;2022-12-07T13:11:42;10.60;64.90
65568;DHT22;52211;50.154;8.682;2022-12-07T13:14:42;10.50;64.80
65568;DHT22;52211;50.154;8.682;2022-12-07T13:20:03;10.30;65.00
65568;DHT22;52211;50.154;8.682;2022-12-07T13:25:21;10.20;65.50
65568;DHT22;52211;50.154;8.682;2022-12-07T13:28:01;10.10;65.10
65568;DHT22;52211;50.154;8.682;2022-12-07T13:30:45;10.10;65.80
65568;DHT22;52211;50.154;8.682;2022-12-07T13:33:27;10.10;65.80
65568;DHT22;52211;50.154;8.682;2022-12-07T13:35:56;10.20;66.10
65568;DHT22;52211;50.154;8.682;2022-12-07T13:43:48;10.20;65.80
65568;DHT22;52211;50.154;8.682;2022-12-07T13:46:27;10.20;65.90
65568;DHT22;52211;50.154;8.682;2022-12-07T13:49:28;10.20;65.80
65568;DHT22;52211;50.154;8.682;2022-12-07T13:52:23;10.30;65.70
65568;DHT22;52211;50.154;8.682;2022-12-07T13:57:38;10.20;65.70
65568;DHT22;52211;50.154;8.682;2022-12-07T14:00:35;10.20;65.60
65568;DHT22;52211;50.154;8.682;2022-12-07T14:03:36;10.20;65.20
65568;DHT22;52211;50.154;8.682;2022-12-07T14:06:26;10.10;65.40
65568;DHT22;52211;50.154;8.682;2022-12-07T14:11:51;10.00;65.00
65568;DHT22;52211;50.154;8.682;2022-12-07T14:14:29;9.90;65.60
65568;DHT22;52211;50.154;8.682;2022-12-07T14:17:24;9.80;65.60
65568;DHT22;52211;50.154;8.682;2022-12-07T14:19:57;9.70;65.10
65568;DHT22;52211;50.154;8.682;2022-12-07T14:22:34;9.70;65.80
65568;DHT22;52211;50.154;8.682;2022-12-07T14:25:23;9.70;65.90
65568;DHT22;52211;50.154;8.682;2022-12-07T14:28:02;9.60;65.30
65568;DHT22;52211;50.154;8.682;2022-12-07T14:30:31;9.60;65.70
65568;DHT22;52211;50.154;8.682;2022-12-07T14:33:07;9.60;65.90
65568;DHT22;52211;50.154;8.682;2022-12-07T14:35:37;9.60;65.90
65568;DHT22;52211;50.154;8.682;2022-12-07T14:38:07;9.50;65.80
65568;DHT22;52211;50.154;8.682;2022-12-07T14:40:34;9.50;65.70
65568;DHT22;52211;50.154;8.682;2022-12-07T14:43:08;9.50;65.80
65568;DHT22;52211;50.154;8.682;2022-12-07T14:45:39;9.40;65.60
65568;DHT22;52211;50.154;8.682;2022-12-07T14:48:15;9.40;65.50
65568;DHT22;52211;50.154;8.682;2022-12-07T14:51:02;9.40;65.40
65568;DHT22;52211;50.154;8.682;2022-12-07T14:53:52;9.30;65.30
65568;DHT22;52211;50.154;8.682;2022-12-07T14:56:24;9.20;65.40
65568;DHT22;52211;50.154;8.682;2022-12-07T14:58:58;9.10;65.40
65568;DHT22;52211;50.154;8.682;2022-12-07T15:01:28;9.00;65.30
65568;DHT22;52211;50.154;8.682;2022-12-07T15:04:01;9.00;65.50
65568;DHT22;52211;50.154;8.682;2022-12-07T15:06:28;8.90;65.50
65568;DHT22;52211;50.154;8.682;2022-12-07T15:09:02;8.80;65.60
65568;DHT22;52211;50.154;8.682;2022-12-07T15:11:32;8.80;65.70
65568;DHT22;52211;50.154;8.682;2022-12-07T15:13:59;8.70;65.70
65568;DHT22;52211;50.154;8.682;2022-12-07T15:16:39;8.70;65.80
65568;DHT22;52211;50.154;8.682;2022-12-07T15:19:27;8.60;65.80
65568;DHT22;52211;50.154;8.682;2022-12-07T15:21:59;8.60;65.90
65568;DHT22;52211;50.154;8.682;2022-12-07T15:24:26;8.50;66.00
65568;DHT22;52211;50.154;8.682;2022-12-07T15:26:53;8.50;66.00
65568;DHT22;52211;50.154;8.682;2022-12-07T15:29:25;8.40;66.10
65568;DHT22;52211;50.154;8.682;2022-12-07T15:31:52;8.40;66.10
65568;DHT22;52211;50.154;8.682;2022-12-07T15:34:24;8.40;66.20
65568;DHT22;52211;50.154;8.682;2022-12-07T15:37:08;8.40;66.20
65568;DHT22;52211;50.154;8.682;2022-12-07T15:39:36;8.40;66.30
65568;DHT22;52211;50.154;8.682;2022-12-07T15:42:05;8.30;66.30
65568;DHT22;52211;50.154;8.682;2022-12-07T15:44:34;8.30;66.40
65568;DHT22;52211;50.154;8.682;2022-12-07T15:47:22;8.30;66.30
65568;DHT22;52211;50.154;8.682;2022-12-07T15:49:49;8.30;66.30
65568;DHT22;52211;50.154;8.682;2022-12-07T15:52:18;8.30;66.40
65568;DHT22;52211;50.154;8.682;2022-12-07T15:54:46;8.20;66.30
65568;DHT22;52211;50.154;8.682;2022-12-07T15:57:14;8.20;66.40
65568;DHT22;52211;50.154;8.682;2022-12-07T15:59:46;8.20;66.40
65568;DHT22;52211;50.154;8.682;2022-12-07T16:02:13;8.20;66.50
65568;DHT22;52211;50.154;8.682;2022-12-07T16:04:40;8.10;66.50
65568;DHT22;52211;50.154;8.682;2022-12-07T16:07:08;8.10;66.60
65568;DHT22;52211;50.154;8.682;2022-12-07T16:09:40;8.10;66.60
65568;DHT22;52211;50.154;8.682;2022-12-07T16:12:10;8.10;66.70
65568;DHT22;52211;50.154;8.682;2022-12-07T16:14:40;8.10;66.70
65568;DHT22;52211;50.154;8.682;2022-12-07T16:17:11;8.10;67.30
65568;DHT22;52211;50.154;8.682;2022-12-07T16:19:44;8.10;66.60
65568;DHT22;52211;50.154;8.682;2022-12-07T16:22:11;8.10;66.70
65568;DHT22;52211;50.154;8.682;2022-12-07T16:24:44;8.10;66.60
65568;DHT22;52211;50.154;8.682;2022-12-07T16:27:11;8.10;66.70
65568;DHT22;52211;50.154;8.682;2022-12-07T16:29:40;8.10;66.70
65568;DHT22;52211;50.154;8.682;2022-12-07T16:32:09;8.10;66.70
65568;DHT22;52211;50.154;8.682;2022-12-07T16:34:36;8.10;66.70
65568;DHT22;52211;50.154;8.682;2022-12-07T16:37:03;8.00;66.70
65568;DHT22;52211;50.154;8.682;2022-12-07T16:39:33;8.10;66.80
65568;DHT22;52211;50.154;8.682;2022-12-07T16:42:01;8.00;66.70
65568;DHT22;52211;50.154;8.682;2022-12-07T16:44:31;8.00;66.80
65568;DHT22;52211;50.154;8.682;2022-12-07T16:47:02;8.00;66.90
65568;DHT22;52211;50.154;8.682;2022-12-07T16:49:30;8.00;66.80
65568;DHT22;52211;50.154;8.682;2022-12-07T16:51:56;8.00;66.80
65568;DHT22;52211;50.154;8.682;2022-12-07T16:54:46;8.10;66.80
65568;DHT22;52211;50.154;8.682;2022-12-07T16:57:17;8.00;66.80
65568;DHT22;52211;50.154;8.682;2022-12-07T16:59:54;8.00;66.80
65568;DHT22;52211;50.154;8.682;2022-12-07T17:02:21;8.00;66.80
65568;DHT22;52211;50.154;8.682;2022-12-07T17:04:48;8.00;66.80
65568;DHT22;52211;50.154;8.682;2022-12-07T17:07:17;8.00;66.80
65568;DHT22;52211;50.154;8.682;2022-12-07T17:09:44;8.00;67.40
65568;DHT22;52211;50.154;8.682;2022-12-07T17:12:10;8.00;66.90
65568;DHT22;52211;50.154;8.682;2022-12-07T17:14:46;8.00;66.80
65568;DHT22;52211;50.154;8.682;2022-12-07T17:17:32;8.00;66.90
65568;DHT22;52211;50.154;8.682;2022-12-07T17:20:01;8.00;66.80
65568;DHT22;52211;50.154;8.682;2022-12-07T17:22:35;8.00;66.90
65568;DHT22;52211;50.154;8.682;2022-12-07T17:25:05;8.00;66.90
65568;DHT22;52211;50.154;8.682;2022-12-07T17:27:32;8.00;66.80
65568;DHT22;52211;50.154;8.682;2022-12-07T17:29:59;8.00;66.80
65568;DHT22;52211;50.154;8.682;2022-12-07T17:32:28;7.90;66.80
65568;DHT22;52211;50.154;8.682;2022-12-07T17:34:57;7.90;66.80
65568;DHT22;52211;50.154;8.682;2022-12-07T17:37:26;7.90;66.90
65568;DHT22;52211;50.154;8.682;2022-12-07T17:39:53;7.90;66.90
65568;DHT22;52211;50.154;8.682;2022-12-07T17:42:24;7.90;66.90
65568;DHT22;52211;50.154;8.682;2022-12-07T17:45:09;7.90;66.80
65568;DHT22;52211;50.154;8.682;2022-12-07T17:47:40;7.90;66.80
65568;DHT22;52211;50.154;8.682;2022-12-07T17:50:10;7.90;66.80
65568;DHT22;52211;50.154;8.682;2022-12-07T17:52:38;7.90;66.90
65568;DHT22;52211;50.154;8.682;2022-12-07T17:55:26;7.80;66.90
65568;DHT22;52211;50.154;8.682;2022-12-07T17:57:53;7.80;66.90
65568;DHT22;52211;50.154;8.682;2022-12-07T18:00:24;7.80;67.00
65568;DHT22;52211;50.154;8.682;2022-12-07T18:02:54;7.80;67.00
65568;DHT22;52211;50.154;8.682;2022-12-07T18:05:23;7.80;67.00
65568;DHT22;52211;50.154;8.682;2022-12-07T18:07:55;7.70;67.00
65568;DHT22;52211;50.154;8.682;2022-12-07T18:10:26;7.70;67.00
65568;DHT22;52211;50.154;8.682;2022-12-07T18:12:55;7.70;67.00
65568;DHT22;52211;50.154;8.682;2022-12-07T18:15:42;7.70;67.10
65568;DHT22;52211;50.154;8.682;2022-12-07T18:18:09;7.70;67.20